createdAt,value
2023-03-29T00:02:02.885Z,49.30
2023-03-29T00:07:52.400Z,59.00
2023-03-29T00:13:26.713Z,51.20
2023-03-29T00:19:21.752Z,70.00
2023-03-29T00:24:53.195Z,69.30
2023-03-29T00:30:51.353Z,63.90
2023-03-29T00:36:25.536Z,70.80
2023-03-29T00:42:35.104Z,57.20
2023-03-29T00:48:05.352Z,47.00
2023-03-29T00:54:02.815Z,51.00
2023-03-29T00:59:54.895Z,46.40
2023-03-29T01:05:36.600Z,33.10
2023-03-29T01:11:22.760Z,49.10
2023-03-29T01:18:05.686Z,48.30
2023-03-29T01:25:04.824Z,42.20
2023-03-29T01:31:22.829Z,42.20
2023-03-29T01:38:32.111Z,46.70
2023-03-29T01:44:55.023Z,44.70
2023-03-29T01:50:37.247Z,45.60
2023-03-29T01:57:16.718Z,35.00
2023-03-29T02:03:25.647Z,50.20
2023-03-29T02:09:15.841Z,53.70
2023-03-29T02:20:31.032Z,55.40
2023-03-29T02:26:08.339Z,64.60
2023-03-29T02:32:07.635Z,69.30
2023-03-29T02:37:21.714Z,66.40
2023-03-29T02:42:58.661Z,70.20
2023-03-29T02:48:16.703Z,66.20
2023-03-29T02:54:28.939Z,81.80
2023-03-29T02:59:51.492Z,79.00
2023-03-29T03:05:16.449Z,90.70
2023-03-29T03:11:21.634Z,92.70
2023-03-29T03:17:48.164Z,94.70
2023-03-29T03:23:54.659Z,87.20
2023-03-29T03:29:35.389Z,96.80
2023-03-29T03:35:16.487Z,99.10
2023-03-29T03:45:44.300Z,81.80
2023-03-29T03:52:03.673Z,88.80
2023-03-29T03:57:24.730Z,88.80
2023-03-29T04:03:30.664Z,92.00
2023-03-29T04:09:12.363Z,97.10
2023-03-29T04:14:20.977Z,89.50
2023-03-29T04:20:41.926Z,95.60
2023-03-29T04:26:24.580Z,97.20
2023-03-29T04:32:31.984Z,94.60
2023-03-29T04:44:24.234Z,108.90
2023-03-29T04:50:08.294Z,92.20
2023-03-29T04:55:55.171Z,125.90
2023-03-29T05:01:54.098Z,109.00
2023-03-29T05:07:01.129Z,94.80
2023-03-29T05:13:03.839Z,90.00
2023-03-29T05:20:26.795Z,100.30
2023-03-29T05:26:54.688Z,92.10
2023-03-29T05:33:22.332Z,78.50
2023-03-29T05:40:11.576Z,71.70
2023-03-29T05:46:56.307Z,80.70
2023-03-29T05:53:21.784Z,74.50
2023-03-29T05:59:43.549Z,82.00
2023-03-29T06:06:05.303Z,79.30
2023-03-29T06:11:58.355Z,91.70
2023-03-29T06:17:34.729Z,64.30
2023-03-29T06:23:14.053Z,72.50
2023-03-29T06:28:22.200Z,72.30
2023-03-29T06:33:37.189Z,72.10
2023-03-29T06:39:04.900Z,62.50
2023-03-29T06:44:36.985Z,52.20
2023-03-29T06:49:57.357Z,49.20
2023-03-29T06:55:25.446Z,40.10
2023-03-29T07:00:58.748Z,47.70
2023-03-29T07:06:21.820Z,41.60
2023-03-29T07:11:54.133Z,34.50
2023-03-29T07:17:35.366Z,36.70
2023-03-29T07:22:47.636Z,35.90
2023-03-29T07:28:11.377Z,34.90
2023-03-29T07:33:13.939Z,28.40
2023-03-29T07:38:29.811Z,32.80
2023-03-29T07:43:42.582Z,33.30
2023-03-29T07:49:08.619Z,30.00
2023-03-29T07:54:10.922Z,25.40
2023-03-29T07:59:42.376Z,24.10
2023-03-29T08:04:58.304Z,23.40
2023-03-29T08:10:22.831Z,21.20
2023-03-29T08:15:27.970Z,25.90
2023-03-29T08:20:34.550Z,26.90
2023-03-29T08:25:41.240Z,24.30
2023-03-29T08:30:45.088Z,23.00
2023-03-29T08:35:52.808Z,23.00
2023-03-29T08:41:52.520Z,23.20
2023-03-29T08:47:18.641Z,20.00
2023-03-29T08:52:33.147Z,14.50
2023-03-29T08:57:52.067Z,15.70
2023-03-29T09:03:32.831Z,17.40
2023-03-29T09:08:44.880Z,11.80
2023-03-29T09:14:36.028Z,13.20
2023-03-29T09:20:10.608Z,17.30
2023-03-29T09:25:28.578Z,12.20
2023-03-29T09:30:36.015Z,11.50
2023-03-29T09:35:56.392Z,11.80
2023-03-29T09:41:14.311Z,11.10
2023-03-29T09:46:33.815Z,14.20
2023-03-29T09:51:40.376Z,13.80
2023-03-29T09:56:47.030Z,11.10
2023-03-29T10:02:09.042Z,8.10
2023-03-29T10:07:20.201Z,10.10
2023-03-29T10:12:27.856Z,12.20
2023-03-29T10:17:45.500Z,10.50
2023-03-29T10:22:56.385Z,14.20
2023-03-29T10:29:10.869Z,9.30
2023-03-29T10:35:32.154Z,10.10
2023-03-29T10:41:04.359Z,10.50
2023-03-29T10:47:11.945Z,12.00
2023-03-29T10:52:33.545Z,12.00
2023-03-29T10:58:06.374Z,11.90
2023-03-29T11:03:53.594Z,9.80
2023-03-29T11:09:12.180Z,11.00
2023-03-29T11:14:35.554Z,12.00
2023-03-29T11:19:43.398Z,11.20
2023-03-29T11:25:11.768Z,12.00
2023-03-29T11:30:27.626Z,13.10
2023-03-29T11:35:53.683Z,10.00
2023-03-29T11:41:02.229Z,11.50
2023-03-29T11:46:49.059Z,10.10
2023-03-29T11:52:03.777Z,11.10
2023-03-29T11:57:33.263Z,9.40
2023-03-29T12:03:13.584Z,11.10
2023-03-29T12:09:18.920Z,10.00
2023-03-29T12:15:46.540Z,11.40
2023-03-29T12:22:08.062Z,10.50
2023-03-29T12:28:14.728Z,10.10
2023-03-29T12:34:17.590Z,8.70
2023-03-29T12:39:38.190Z,8.20
2023-03-29T12:45:03.319Z,8.50
2023-03-29T12:50:36.483Z,9.10
2023-03-29T12:55:52.746Z,10.40
2023-03-29T13:01:07.392Z,14.40
2023-03-29T13:06:11.626Z,12.40
2023-03-29T13:11:36.915Z,13.60
2023-03-29T13:16:41.152Z,14.90
2023-03-29T13:21:58.611Z,14.70
2023-03-29T13:27:24.711Z,7.80
2023-03-29T13:32:36.162Z,13.30
2023-03-29T13:37:56.315Z,11.60
2023-03-29T13:43:07.893Z,13.90
2023-03-29T13:48:26.821Z,13.50
2023-03-29T13:53:41.258Z,12.30
2023-03-29T13:59:00.181Z,10.10
2023-03-29T14:04:11.284Z,16.30
2023-03-29T14:09:26.080Z,10.00
2023-03-29T14:14:31.683Z,15.40
2023-03-29T14:19:39.177Z,10.00
2023-03-29T14:24:48.757Z,15.80
2023-03-29T14:29:51.836Z,18.70
2023-03-29T14:34:53.792Z,13.70
2023-03-29T14:40:21.251Z,12.50
2023-03-29T14:45:23.432Z,12.70
2023-03-29T14:50:32.337Z,12.40
2023-03-29T14:55:35.974Z,13.50
2023-03-29T15:01:46.025Z,11.60
2023-03-29T15:08:07.569Z,14.80
2023-03-29T15:13:30.317Z,12.40
2023-03-29T15:18:39.523Z,12.90
2023-03-29T15:24:00.835Z,18.40
2023-03-29T15:29:12.816Z,14.30
2023-03-29T15:34:27.532Z,14.70
2023-03-29T15:39:33.747Z,14.20
2023-03-29T15:44:38.237Z,16.80
2023-03-29T15:49:43.889Z,18.70
2023-03-29T15:54:46.201Z,16.90
2023-03-29T15:59:48.113Z,20.60
2023-03-29T16:04:52.955Z,16.50
2023-03-29T16:09:55.261Z,19.70
2023-03-29T16:14:57.481Z,19.40
2023-03-29T16:19:59.324Z,19.60
2023-03-29T16:25:04.654Z,16.70
2023-03-29T16:30:10.823Z,23.50
2023-03-29T16:35:31.474Z,16.90
2023-03-29T16:46:00.799Z,16.10
2023-03-29T16:51:10.713Z,16.10
2023-03-29T16:56:15.180Z,18.50
2023-03-29T17:01:25.013Z,20.80
2023-03-29T17:07:10.979Z,20.80
2023-03-29T17:13:32.216Z,22.70
2023-03-29T17:19:14.739Z,19.90
2023-03-29T17:24:16.522Z,22.00
2023-03-29T17:29:18.411Z,24.70
2023-03-29T17:34:20.487Z,26.50
2023-03-29T17:39:24.593Z,24.80
2023-03-29T17:44:26.619Z,28.20
2023-03-29T17:49:28.434Z,27.10
2023-03-29T17:54:30.211Z,30.80
2023-03-29T17:59:31.982Z,24.30
2023-03-29T18:04:35.742Z,22.80
2023-03-29T18:09:37.506Z,22.20
2023-03-29T18:14:44.202Z,30.30
2023-03-29T18:19:58.665Z,20.80
2023-03-29T18:25:05.088Z,26.80
2023-03-29T18:30:09.824Z,23.10
2023-03-29T18:35:11.645Z,26.80
2023-03-29T18:40:15.110Z,29.10
2023-03-29T18:46:16.423Z,31.70
2023-03-29T18:51:59.342Z,30.40
2023-03-29T18:57:01.449Z,25.20
2023-03-29T19:02:03.594Z,28.30
2023-03-29T19:07:05.143Z,29.00
2023-03-29T19:12:09.628Z,31.90
2023-03-29T19:17:15.663Z,31.20
2023-03-29T19:22:17.580Z,33.70
2023-03-29T19:28:19.050Z,29.40
2023-03-29T19:34:40.875Z,33.80
2023-03-29T19:41:02.176Z,33.90
2023-03-29T19:47:25.752Z,34.00
2023-03-29T19:52:46.266Z,33.30
2023-03-29T19:58:21.861Z,33.60
2023-03-29T20:03:48.497Z,38.20
2023-03-29T20:09:08.485Z,38.30
2023-03-29T20:17:21.223Z,33.10
2023-03-29T20:23:27.846Z,34.90
2023-03-29T20:30:01.301Z,40.70
2023-03-29T20:35:23.084Z,28.40
2023-03-29T20:40:36.426Z,25.90
2023-03-29T20:46:43.885Z,25.40
2023-03-29T20:53:14.596Z,25.20
2023-03-29T20:58:41.519Z,23.40
2023-03-29T21:04:43.771Z,24.00
2023-03-29T21:10:09.728Z,23.70
2023-03-29T21:15:20.200Z,24.30
2023-03-29T21:21:23.341Z,23.50
2023-03-29T21:27:49.672Z,22.60
2023-03-29T21:33:41.196Z,23.40
2023-03-29T21:39:52.816Z,24.90
2023-03-29T21:46:17.394Z,20.10
2023-03-29T21:51:46.331Z,20.20
2023-03-29T21:57:15.434Z,23.50
2023-03-29T22:03:20.463Z,19.30
2023-03-29T22:09:38.196Z,23.20
2023-03-29T22:15:12.452Z,18.30
2023-03-29T22:21:17.554Z,21.10
2023-03-29T22:27:22.158Z,15.80
2023-03-29T22:33:30.285Z,17.50
2023-03-29T22:40:02.982Z,20.30
2023-03-29T22:46:12.078Z,17.10
2023-03-29T22:52:36.749Z,13.80
2023-03-29T22:58:43.997Z,16.80
2023-03-29T23:04:42.797Z,18.90
2023-03-29T23:10:18.596Z,12.50
2023-03-29T23:16:21.925Z,12.60
2023-03-29T23:21:27.469Z,15.10
2023-03-29T23:27:29.166Z,18.20
2023-03-29T23:33:38.033Z,14.70
2023-03-29T23:38:58.994Z,18.70
2023-03-29T23:44:28.118Z,11.90
2023-03-29T23:50:06.812Z,24.40
2023-03-29T23:56:21.191Z,19.90
